createdAt,value
2022-09-02T00:01:31.422Z,94.00
2022-09-02T00:04:03.785Z,94.20
2022-09-02T00:06:31.575Z,94.40
2022-09-02T00:08:59.987Z,94.40
2022-09-02T00:11:31.198Z,94.40
2022-09-02T00:14:02.935Z,94.40
2022-09-02T00:16:31.978Z,94.90
2022-09-02T00:19:01.632Z,96.10
2022-09-02T00:21:30.881Z,96.10
2022-09-02T00:23:57.927Z,95.20
2022-09-02T00:26:25.034Z,95.40
2022-09-02T00:28:56.334Z,95.40
2022-09-02T00:31:25.214Z,95.60
2022-09-02T00:33:52.300Z,95.50
2022-09-02T00:36:20.003Z,96.10
2022-09-02T00:38:47.410Z,95.30
2022-09-02T00:41:15.245Z,95.80
2022-09-02T00:44:00.582Z,96.40
2022-09-02T00:46:31.109Z,96.40
2022-09-02T00:49:18.356Z,96.50
2022-09-02T00:52:09.811Z,96.50
2022-09-02T00:54:46.359Z,96.50
2022-09-02T00:57:19.650Z,96.40
2022-09-02T01:00:18.869Z,96.70
2022-09-02T01:03:01.639Z,96.80
2022-09-02T01:05:35.287Z,97.50
2022-09-02T01:08:03.421Z,97.90
2022-09-02T01:10:34.402Z,97.50
2022-09-02T01:13:17.739Z,97.50
2022-09-02T01:15:56.403Z,97.60
2022-09-02T01:18:29.387Z,97.90
2022-09-02T01:20:59.763Z,97.70
2022-09-02T01:23:29.123Z,97.60
2022-09-02T01:25:59.363Z,97.90
2022-09-02T01:28:26.346Z,97.40
2022-09-02T01:30:55.015Z,97.30
2022-09-02T01:33:25.428Z,97.50
2022-09-02T01:35:53.845Z,97.40
2022-09-02T01:38:22.287Z,98.50
2022-09-02T01:40:49.385Z,97.10
2022-09-02T01:43:22.359Z,97.80
2022-09-02T01:45:53.680Z,98.30
2022-09-02T01:48:22.066Z,98.70
2022-09-02T01:50:55.657Z,97.90
2022-09-02T01:53:23.297Z,98.10
2022-09-02T01:55:50.367Z,99.20
2022-09-02T01:58:17.429Z,99.80
2022-09-02T02:00:44.577Z,98.90
2022-09-02T02:03:12.733Z,98.70
2022-09-02T02:05:40.162Z,99.90
2022-09-02T02:08:07.518Z,98.70
2022-09-02T02:10:35.081Z,98.90
2022-09-02T02:13:03.181Z,99.90
2022-09-02T02:17:56.506Z,99.10
2022-09-02T02:20:23.479Z,99.90
2022-09-02T02:22:50.552Z,99.40
2022-09-02T02:25:18.848Z,99.50
2022-09-02T02:27:45.965Z,99.60
2022-09-02T02:30:15.909Z,99.90
2022-09-02T02:32:45.518Z,99.70
2022-09-02T02:35:13.429Z,99.60
2022-09-02T02:37:40.500Z,99.70
2022-09-02T02:40:09.196Z,99.90
2022-09-02T02:42:36.370Z,99.70
2022-09-02T02:45:09.001Z,99.90
2022-09-02T02:47:43.337Z,99.80
2022-09-02T02:50:15.508Z,99.90
2022-09-02T02:52:43.686Z,99.90
2022-09-02T02:55:12.824Z,99.90
2022-09-02T02:57:42.737Z,99.90
2022-09-02T03:00:32.956Z,99.90
2022-09-02T03:03:06.860Z,99.90
2022-09-02T03:05:37.673Z,99.90
2022-09-02T03:08:08.382Z,99.90
2022-09-02T03:10:37.850Z,99.90
2022-09-02T03:13:05.504Z,99.90
2022-09-02T03:15:33.084Z,99.90
2022-09-02T03:18:00.018Z,99.90
2022-09-02T03:20:26.941Z,99.90
2022-09-02T03:22:56.948Z,99.90
2022-09-02T03:25:25.024Z,99.90
2022-09-02T03:27:53.346Z,99.90
2022-09-02T03:30:27.805Z,99.90
2022-09-02T03:33:03.852Z,99.90
2022-09-02T03:35:32.953Z,99.90
2022-09-02T03:38:01.638Z,99.90
2022-09-02T03:40:29.093Z,99.90
2022-09-02T03:43:00.135Z,99.90
2022-09-02T03:45:29.204Z,99.90
2022-09-02T03:47:56.995Z,99.90
2022-09-02T03:50:40.045Z,99.90
2022-09-02T03:53:07.995Z,99.90
2022-09-02T03:55:37.621Z,99.90
2022-09-02T03:58:08.589Z,99.90
2022-09-02T04:00:37.154Z,99.90
2022-09-02T04:03:05.179Z,99.90
2022-09-02T04:05:32.524Z,99.90
2022-09-02T04:08:00.263Z,99.90
2022-09-02T04:10:27.439Z,99.90
2022-09-02T04:12:54.359Z,99.90
2022-09-02T04:15:21.887Z,99.90
2022-09-02T04:17:48.907Z,99.90
2022-09-02T04:20:17.682Z,99.90
2022-09-02T04:22:44.878Z,99.90
2022-09-02T04:25:13.007Z,99.90
2022-09-02T04:27:40.390Z,99.90
2022-09-02T04:30:09.590Z,99.90
2022-09-02T04:32:40.735Z,99.90
2022-09-02T04:35:09.087Z,99.90
2022-09-02T04:37:36.090Z,99.90
2022-09-02T04:40:03.514Z,99.90
2022-09-02T04:42:31.099Z,99.90
2022-09-02T04:44:58.035Z,99.90
2022-09-02T04:47:26.603Z,99.90
2022-09-02T04:49:54.205Z,99.90
2022-09-02T04:52:21.585Z,99.90
2022-09-02T04:54:48.827Z,99.90
2022-09-02T04:57:16.062Z,99.90
2022-09-02T04:59:43.289Z,99.90
2022-09-02T05:02:11.000Z,99.90
2022-09-02T05:04:38.387Z,99.90
2022-09-02T05:07:05.346Z,99.90
2022-09-02T05:09:33.050Z,99.80
2022-09-02T05:12:04.563Z,99.90
2022-09-02T05:14:32.796Z,99.90
2022-09-02T05:17:06.711Z,99.90
2022-09-02T05:19:34.833Z,99.90
2022-09-02T05:22:02.317Z,99.90
2022-09-02T05:24:29.722Z,99.90
2022-09-02T05:26:56.916Z,99.90
2022-09-02T05:29:23.955Z,99.90
2022-09-02T05:31:51.202Z,99.90
2022-09-02T05:34:18.503Z,99.90
2022-09-02T05:36:46.018Z,99.90
2022-09-02T05:39:13.390Z,99.70
2022-09-02T05:41:40.498Z,99.40
2022-09-02T05:44:07.795Z,99.40
2022-09-02T05:46:36.168Z,98.80
2022-09-02T05:49:08.724Z,99.10
2022-09-02T05:51:49.886Z,99.50
2022-09-02T05:54:30.570Z,99.20
2022-09-02T05:57:03.059Z,99.20
2022-09-02T05:59:33.863Z,99.50
2022-09-02T06:02:00.827Z,99.60
2022-09-02T06:04:28.046Z,99.90
2022-09-02T06:06:55.165Z,99.90
2022-09-02T06:09:23.782Z,99.90
2022-09-02T06:11:52.692Z,99.90
2022-09-02T06:14:25.077Z,99.90
2022-09-02T06:16:54.922Z,99.80
2022-09-02T06:19:25.291Z,99.80
2022-09-02T06:21:55.326Z,99.90
2022-09-02T06:24:22.477Z,99.90
2022-09-02T06:26:49.930Z,99.90
2022-09-02T06:29:25.829Z,99.90
2022-09-02T06:31:54.081Z,99.90
2022-09-02T06:34:25.462Z,99.90
2022-09-02T06:36:52.665Z,99.90
2022-09-02T06:39:22.459Z,99.80
2022-09-02T06:41:50.048Z,99.90
2022-09-02T06:44:18.832Z,99.90
2022-09-02T06:46:54.393Z,99.40
2022-09-02T06:49:22.848Z,99.90
2022-09-02T06:51:52.640Z,98.90
2022-09-02T06:54:21.947Z,99.10
2022-09-02T06:56:51.255Z,99.20
2022-09-02T06:59:20.731Z,99.10
2022-09-02T07:01:48.401Z,99.40
2022-09-02T07:04:35.902Z,99.30
2022-09-02T07:07:06.607Z,99.50
2022-09-02T07:09:34.137Z,99.90
2022-09-02T07:12:04.973Z,99.00
2022-09-02T07:14:41.428Z,99.10
2022-09-02T07:17:10.422Z,98.60
2022-09-02T07:19:38.396Z,99.00
2022-09-02T07:22:06.751Z,99.10
2022-09-02T07:24:34.542Z,98.50
2022-09-02T07:27:01.707Z,98.50
2022-09-02T07:29:28.973Z,98.30
2022-09-02T07:31:55.979Z,97.70
2022-09-02T07:34:23.395Z,98.00
2022-09-02T07:36:50.628Z,99.00
2022-09-02T07:39:19.507Z,98.70
2022-09-02T07:41:50.946Z,97.90
2022-09-02T07:44:20.976Z,97.00
2022-09-02T07:46:48.597Z,97.60
2022-09-02T07:49:18.082Z,96.50
2022-09-02T07:51:49.932Z,97.10
2022-09-02T07:54:21.479Z,96.90
2022-09-02T07:56:49.802Z,97.00
2022-09-02T07:59:18.123Z,97.20
2022-09-02T08:01:45.609Z,97.30
2022-09-02T08:04:13.937Z,97.30
2022-09-02T08:06:41.176Z,97.90
2022-09-02T08:09:12.929Z,95.90
2022-09-02T08:11:44.296Z,95.40
2022-09-02T08:14:17.530Z,94.20
2022-09-02T08:16:46.804Z,94.30
2022-09-02T08:19:15.698Z,94.90
2022-09-02T08:21:42.830Z,93.40
2022-09-02T08:24:10.310Z,92.40
2022-09-02T08:26:37.470Z,93.00
2022-09-02T08:29:07.206Z,93.50
2022-09-02T08:31:37.237Z,92.50
2022-09-02T08:34:04.241Z,91.60
2022-09-02T08:36:31.272Z,92.00
2022-09-02T08:38:58.384Z,92.10
2022-09-02T08:41:48.836Z,92.00
2022-09-02T08:44:24.014Z,92.20
2022-09-02T08:46:56.746Z,92.30
2022-09-02T08:49:35.773Z,90.70
2022-09-02T08:52:05.320Z,89.90
2022-09-02T08:54:46.660Z,91.40
2022-09-02T08:57:13.714Z,92.30
2022-09-02T09:02:36.396Z,92.10
2022-09-02T09:05:39.825Z,92.60
2022-09-02T09:08:31.838Z,91.80
2022-09-02T09:11:38.615Z,90.50
2022-09-02T09:14:36.142Z,90.80
2022-09-02T09:17:13.383Z,91.20
2022-09-02T09:19:54.662Z,89.70
2022-09-02T09:22:30.600Z,90.50
2022-09-02T09:24:58.436Z,89.60
2022-09-02T09:27:26.059Z,88.00
2022-09-02T09:29:53.435Z,87.50
2022-09-02T09:32:43.276Z,87.30
2022-09-02T09:35:16.901Z,88.80
2022-09-02T09:37:52.141Z,86.70
2022-09-02T09:40:28.064Z,86.10
2022-09-02T09:43:14.650Z,84.80
2022-09-02T09:45:51.682Z,83.90
2022-09-02T09:48:33.702Z,84.90
2022-09-02T09:51:00.535Z,81.80
2022-09-02T09:53:30.761Z,78.90
2022-09-02T09:56:06.600Z,80.00
2022-09-02T09:58:46.171Z,80.00
2022-09-02T10:01:33.469Z,79.70
2022-09-02T10:04:32.401Z,76.40
2022-09-02T10:06:56.303Z,74.90
2022-09-02T10:09:34.695Z,73.30
2022-09-02T10:12:12.301Z,75.60
2022-09-02T10:14:50.355Z,75.00
2022-09-02T10:17:36.622Z,73.10
2022-09-02T10:20:10.607Z,73.90
2022-09-02T10:23:23.758Z,74.20
2022-09-02T10:29:11.971Z,68.60
2022-09-02T10:32:17.439Z,69.90
2022-09-02T10:35:32.621Z,71.10
2022-09-02T10:38:12.895Z,71.50
2022-09-02T10:41:00.886Z,71.50
2022-09-02T10:44:18.784Z,70.50
2022-09-02T10:47:04.777Z,69.40
2022-09-02T10:50:01.861Z,68.20
2022-09-02T10:52:48.484Z,67.60
2022-09-02T10:55:49.223Z,68.40
2022-09-02T10:58:56.023Z,67.20
2022-09-02T11:01:29.947Z,66.30
2022-09-02T11:04:22.702Z,68.20
2022-09-02T11:07:02.479Z,68.20
2022-09-02T11:10:00.387Z,67.10
2022-09-02T11:12:36.239Z,67.40
2022-09-02T11:15:17.906Z,66.50
2022-09-02T11:18:05.769Z,65.50
2022-09-02T11:20:38.827Z,66.90
2022-09-02T11:23:28.899Z,67.20
2022-09-02T11:26:11.993Z,65.70
2022-09-02T11:28:54.124Z,65.00
2022-09-02T11:32:05.892Z,61.30
2022-09-02T11:34:41.701Z,62.10
2022-09-02T11:37:24.707Z,63.90
2022-09-02T11:40:33.822Z,66.10
2022-09-02T11:43:35.783Z,66.50
2022-09-02T11:46:46.408Z,64.10
2022-09-02T11:49:51.526Z,62.10
2022-09-02T11:52:27.921Z,58.80
2022-09-02T11:55:11.147Z,61.40
2022-09-02T11:57:41.272Z,58.20
2022-09-02T12:00:34.798Z,55.40
2022-09-02T12:03:12.201Z,56.10
2022-09-02T12:06:05.166Z,52.90
2022-09-02T12:08:34.401Z,52.10
2022-09-02T12:11:06.882Z,51.60
2022-09-02T12:16:16.014Z,53.50
2022-09-02T12:19:08.979Z,54.20
2022-09-02T12:21:38.902Z,53.80
2022-09-02T12:24:10.423Z,52.80
2022-09-02T12:26:37.603Z,53.80
2022-09-02T12:29:33.616Z,52.40
2022-09-02T12:32:01.132Z,50.00
2022-09-02T12:34:28.766Z,50.60
2022-09-02T12:37:03.846Z,53.40
2022-09-02T12:39:35.456Z,52.50
2022-09-02T12:42:11.035Z,51.20
2022-09-02T12:44:55.827Z,50.70
2022-09-02T12:48:13.958Z,51.10
2022-09-02T12:51:00.131Z,52.50
2022-09-02T12:53:37.850Z,53.60
2022-09-02T12:56:22.651Z,52.90
2022-09-02T12:59:01.665Z,52.00
2022-09-02T13:02:06.613Z,55.70
2022-09-02T13:04:51.617Z,55.10
2022-09-02T13:07:49.339Z,52.10
2022-09-02T13:10:56.635Z,51.50
2022-09-02T13:14:25.456Z,52.50
2022-09-02T13:17:37.163Z,52.90
2022-09-02T13:20:37.653Z,55.40
2022-09-02T13:24:00.491Z,57.60
2022-09-02T13:26:49.487Z,55.60
2022-09-02T13:29:41.758Z,55.30
2022-09-02T13:32:15.697Z,54.50
2022-09-02T13:34:49.321Z,57.10
2022-09-02T13:37:37.430Z,53.90
2022-09-02T13:40:36.016Z,57.70
2022-09-02T13:43:18.278Z,56.80
2022-09-02T13:45:47.234Z,55.00
2022-09-02T13:48:27.518Z,55.60
2022-09-02T13:51:00.130Z,57.60
2022-09-02T13:53:53.636Z,57.10
2022-09-02T13:56:29.140Z,57.60
2022-09-02T13:58:59.273Z,55.80
2022-09-02T14:01:34.772Z,55.70
2022-09-02T14:04:10.438Z,56.00
2022-09-02T14:06:46.654Z,55.20
2022-09-02T14:09:27.170Z,55.30
2022-09-02T14:11:55.010Z,56.10
2022-09-02T14:14:25.513Z,56.30
2022-09-02T14:16:52.990Z,57.00
2022-09-02T14:19:19.961Z,57.80
2022-09-02T14:21:57.484Z,58.80
2022-09-02T14:24:30.796Z,59.10
2022-09-02T14:27:00.003Z,58.50
2022-09-02T14:29:32.004Z,61.20
2022-09-02T14:32:21.020Z,57.20
2022-09-02T14:34:50.244Z,55.30
2022-09-02T14:37:26.161Z,57.40
2022-09-02T14:40:09.728Z,59.30
2022-09-02T14:42:57.222Z,59.70
2022-09-02T14:45:35.197Z,58.10
2022-09-02T14:48:18.518Z,59.40
2022-09-02T14:50:45.562Z,61.40
2022-09-02T14:53:22.922Z,59.50
2022-09-02T14:55:53.257Z,57.50
2022-09-02T14:58:27.093Z,59.70
2022-09-02T15:01:00.016Z,59.20
2022-09-02T15:03:29.761Z,63.10
2022-09-02T15:05:57.230Z,63.00
2022-09-02T15:08:24.729Z,63.00
2022-09-02T15:10:54.264Z,65.60
2022-09-02T15:13:34.121Z,65.00
2022-09-02T15:16:02.842Z,66.00
2022-09-02T15:18:30.216Z,65.50
2022-09-02T15:20:57.877Z,67.50
2022-09-02T15:23:25.250Z,65.50
2022-09-02T15:25:54.052Z,67.50
2022-09-02T15:28:21.190Z,66.60
2022-09-02T15:30:48.347Z,67.30
2022-09-02T15:33:17.586Z,68.70
2022-09-02T15:35:47.379Z,69.80
2022-09-02T15:38:14.607Z,67.80
2022-09-02T15:40:41.583Z,69.00
2022-09-02T15:43:08.590Z,69.40
2022-09-02T15:45:39.698Z,70.30
2022-09-02T15:48:07.110Z,68.60
2022-09-02T15:50:34.325Z,67.90
2022-09-02T15:53:01.380Z,68.90
2022-09-02T15:55:32.288Z,69.60
2022-09-02T15:57:59.953Z,67.90
2022-09-02T16:00:28.665Z,68.00
2022-09-02T16:02:57.058Z,67.10
2022-09-02T16:05:25.125Z,68.20
2022-09-02T16:07:55.174Z,67.00
2022-09-02T16:10:22.353Z,67.90
2022-09-02T16:12:49.383Z,67.90
2022-09-02T16:15:16.565Z,68.30
2022-09-02T16:17:43.503Z,68.90
2022-09-02T16:20:11.280Z,69.00
2022-09-02T16:22:38.606Z,69.10
2022-09-02T16:25:06.338Z,69.50
2022-09-02T16:27:51.626Z,68.20
2022-09-02T16:30:19.483Z,67.90
2022-09-02T16:32:47.700Z,68.00
2022-09-02T16:35:14.774Z,69.50
2022-09-02T16:37:42.382Z,68.40
2022-09-02T16:40:11.037Z,68.40
2022-09-02T16:42:39.401Z,67.90
2022-09-02T16:45:07.145Z,69.90
2022-09-02T16:47:34.387Z,69.70
2022-09-02T16:50:01.307Z,71.10
2022-09-02T16:52:28.318Z,71.30
2022-09-02T16:54:55.253Z,71.60
2022-09-02T16:57:22.141Z,71.50
2022-09-02T16:59:49.531Z,72.00
2022-09-02T17:02:16.631Z,72.30
2022-09-02T17:04:43.635Z,71.70
2022-09-02T17:07:10.637Z,73.50
2022-09-02T17:09:37.911Z,74.00
2022-09-02T17:12:05.168Z,74.50
2022-09-02T17:14:32.134Z,75.30
2022-09-02T17:16:59.209Z,75.30
2022-09-02T17:19:31.947Z,75.60
2022-09-02T17:21:59.379Z,76.20
2022-09-02T17:24:31.506Z,76.90
2022-09-02T17:27:00.267Z,75.90
2022-09-02T17:29:48.564Z,77.00
2022-09-02T17:32:17.123Z,77.00
2022-09-02T17:34:44.134Z,77.50
2022-09-02T17:37:11.270Z,78.40
2022-09-02T17:39:38.366Z,78.60
2022-09-02T17:42:06.838Z,77.80
2022-09-02T17:44:38.568Z,79.00
2022-09-02T17:47:22.059Z,79.40
2022-09-02T17:49:49.762Z,80.40
2022-09-02T17:52:23.910Z,80.70
2022-09-02T17:54:53.223Z,81.10
2022-09-02T17:57:46.881Z,81.50
2022-09-02T18:00:18.704Z,81.50
2022-09-02T18:03:22.913Z,81.60
2022-09-02T18:06:10.683Z,82.00
2022-09-02T18:09:02.222Z,83.00
2022-09-02T18:11:30.711Z,85.70
2022-09-02T18:14:09.782Z,83.30
2022-09-02T18:17:13.399Z,81.40
2022-09-02T18:19:52.539Z,82.20
2022-09-02T18:22:49.066Z,83.90
2022-09-02T18:25:45.859Z,84.00
2022-09-02T18:28:53.345Z,85.90
2022-09-02T18:31:58.877Z,86.60
2022-09-02T18:34:53.081Z,85.00
2022-09-02T18:38:07.186Z,85.40
2022-09-02T18:40:37.739Z,85.60
2022-09-02T18:43:25.323Z,86.40
2022-09-02T18:45:54.809Z,86.60
2022-09-02T18:48:27.301Z,87.50
2022-09-02T18:51:15.323Z,87.30
2022-09-02T18:53:49.413Z,87.50
2022-09-02T18:56:21.091Z,87.40
2022-09-02T18:58:57.891Z,88.00
2022-09-02T19:01:31.554Z,87.90
2022-09-02T19:03:59.737Z,87.90
2022-09-02T19:06:36.097Z,88.00
2022-09-02T19:09:14.709Z,86.90
2022-09-02T19:11:42.252Z,87.70
2022-09-02T19:14:09.063Z,88.50
2022-09-02T19:16:38.957Z,87.70
2022-09-02T19:19:10.409Z,87.50
2022-09-02T19:21:47.231Z,87.10
2022-09-02T19:24:23.982Z,87.20
2022-09-02T19:26:57.841Z,88.30
2022-09-02T19:29:25.428Z,89.50
2022-09-02T19:31:54.546Z,89.50
2022-09-02T19:34:22.770Z,90.40
2022-09-02T19:36:51.426Z,90.50
2022-09-02T19:39:18.389Z,90.10
2022-09-02T19:41:45.797Z,90.40
2022-09-02T19:44:15.427Z,90.80
2022-09-02T19:49:29.536Z,90.80
2022-09-02T19:51:57.061Z,90.20
2022-09-02T19:54:24.068Z,90.70
2022-09-02T19:56:51.488Z,91.20
2022-09-02T19:59:18.479Z,91.80
2022-09-02T20:01:46.320Z,91.30
2022-09-02T20:04:13.394Z,91.30
2022-09-02T20:06:40.390Z,91.20
2022-09-02T20:09:07.540Z,91.00
2022-09-02T20:11:35.317Z,91.40
2022-09-02T20:14:04.462Z,91.70
2022-09-02T20:16:32.945Z,91.40
2022-09-02T20:19:00.010Z,91.50
2022-09-02T20:21:46.592Z,91.50
2022-09-02T20:24:24.850Z,91.80
2022-09-02T20:27:43.634Z,91.90
2022-09-02T20:30:16.712Z,92.20
2022-09-02T20:32:57.566Z,92.30
2022-09-02T20:35:58.078Z,92.70
2022-09-02T20:39:03.646Z,93.10
2022-09-02T20:41:58.033Z,93.20
2022-09-02T20:44:54.629Z,93.60
2022-09-02T20:47:58.958Z,93.50
2022-09-02T20:51:01.158Z,93.50
2022-09-02T20:54:19.877Z,93.70
2022-09-02T20:56:53.590Z,93.40
2022-09-02T20:59:40.447Z,93.60
2022-09-02T21:02:11.331Z,93.90
2022-09-02T21:04:51.402Z,94.70
2022-09-02T21:07:24.555Z,94.60
2022-09-02T21:10:07.358Z,94.70
2022-09-02T21:13:13.103Z,95.10
2022-09-02T21:15:52.300Z,95.20
2022-09-02T21:18:38.306Z,95.70
2022-09-02T21:21:10.870Z,95.90
2022-09-02T21:23:51.439Z,96.30
2022-09-02T21:26:39.908Z,96.70
2022-09-02T21:29:27.854Z,97.00
2022-09-02T21:32:09.517Z,96.90
2022-09-02T21:34:44.046Z,98.60
2022-09-02T21:37:13.559Z,98.40
2022-09-02T21:39:48.484Z,98.00
2022-09-02T21:43:05.722Z,98.10
2022-09-02T21:46:12.436Z,98.30
2022-09-02T21:48:55.420Z,98.20
2022-09-02T21:51:47.907Z,98.60
2022-09-02T21:54:27.877Z,98.80
2022-09-02T21:57:19.056Z,98.90
2022-09-02T22:00:09.996Z,99.30
2022-09-02T22:03:22.159Z,99.50
2022-09-02T22:06:27.051Z,99.60
2022-09-02T22:09:08.676Z,99.60
2022-09-02T22:11:47.549Z,99.60
2022-09-02T22:14:44.284Z,99.80
2022-09-02T22:17:47.364Z,99.70
2022-09-02T22:20:27.588Z,99.70
2022-09-02T22:23:04.455Z,99.90
2022-09-02T22:25:34.223Z,99.90
2022-09-02T22:28:09.255Z,99.90
2022-09-02T22:30:41.551Z,99.90
2022-09-02T22:33:14.486Z,99.90
2022-09-02T22:35:50.102Z,99.90
2022-09-02T22:38:30.313Z,99.90
2022-09-02T22:41:15.126Z,99.90
2022-09-02T22:44:08.269Z,99.90
2022-09-02T22:47:07.393Z,99.90
2022-09-02T22:50:10.283Z,99.90
2022-09-02T22:52:54.781Z,99.90
2022-09-02T22:56:13.661Z,99.90
2022-09-02T22:59:48.874Z,99.90
2022-09-02T23:02:36.786Z,99.90
2022-09-02T23:05:44.368Z,99.90
2022-09-02T23:08:14.283Z,99.90
2022-09-02T23:11:01.952Z,99.90
2022-09-02T23:13:47.362Z,99.90
2022-09-02T23:16:58.516Z,99.90
2022-09-02T23:20:00.319Z,99.90
2022-09-02T23:23:07.124Z,99.90
2022-09-02T23:25:37.727Z,99.90
2022-09-02T23:28:46.393Z,99.90
2022-09-02T23:31:42.374Z,99.90
2022-09-02T23:34:41.611Z,99.90
2022-09-02T23:37:35.526Z,99.90
2022-09-02T23:40:39.801Z,99.90
2022-09-02T23:43:07.947Z,99.90
2022-09-02T23:45:35.592Z,99.90
2022-09-02T23:48:44.078Z,99.90
2022-09-02T23:51:32.220Z,99.90
2022-09-02T23:54:51.030Z,99.90
2022-09-02T23:57:46.655Z,99.90
